Grand Rapids, MI (49501)

10:55 AM EST on February 09, 2016 (GMT -0500)
WXGR.NET | | Change Station
CLOSE
Current Station
Personal Weather Station
Location: Grand Rapids, MI
Elevation: 756 ft
Nearby Weather Stations

Elev 756 ft 42.96 °N, 85.63 °W | Updated 2 seconds ago

Overcast
Overcast
25.7 °F
Feels Like 15 °F
N
11.0
Wind Variable Wind from WNW
Gusts 11.0 mph

Today
High -- | Low -- °F
--% Chance of Precip.
Yesterday
High -- | Low -- °F
Precip. -- in
Pressure 29.70 in
Visibility 9.0 miles
Clouds Overcast 1400 ft
Windchill 15 °F
Dew Point 20 °F
Humidity 80%
Rainfall 0.00 in
Snow Depth Not available.
7:48 AM 6:05 PM
New Moon, 1% visible
METAR KGRR 091553Z 31014KT 9SM -SN OVC014 M03/M07 A2967 RMK AO2 SLP057 P0000 T10331072
Pressure 29.70 in
Visibility 9.0 miles
Clouds Overcast 1400 ft
Windchill 15 °F
Dew Point 20 °F
Humidity 80%
Rainfall 0.00 in
Snow Depth Not available.
7:48 AM 6:05 PM
New Moon, 1% visible
METAR KGRR 091553Z 31014KT 9SM -SN OVC014 M03/M07 A2967 RMK AO2 SLP057 P0000 T10331072

10-Day Weather Forecast

Almanac

Astronomy

Feb. 09, 2016 Rise Set
Actual Time
Civil Twilight
Nautical Twilight
Astronomical Twilight
Moon
Length of Visible Light
Length of Day
Tomorrow will be .
, % of the Moon is Illuminated

Today's Extremes

State Highs State Lows

Community

WunderPhotos

Upload Photos

1,891,628 photos uploaded!

WunderBlog® & News

Nearby

Air Quality

  Air Quality AQ Index Pollutant
Not available.

Snow Depth

Station Depth Elevation

Earthquake Activity

City Distance Mag. Time & Date
Minimum magnitude displayed is 2.5.

Coastal Water Temperatures

Place Temperature

Stations

Nearby Weather Stations

Station Location Temp. Windchill Dew Point Humidity Wind Precip. Elev Updated Type
                   

Watches & Warnings

There are currently no watches in effect.